createdAt,value
2018-12-11T00:01:08.954Z,5.50
2018-12-11T00:03:39.585Z,5.10
2018-12-11T00:06:08.136Z,5.20
2018-12-11T00:08:36.705Z,5.30
2018-12-11T00:11:05.277Z,5.30
2018-12-11T00:13:33.842Z,5.30
2018-12-11T00:16:02.448Z,5.60
2018-12-11T00:18:31.065Z,5.20
2018-12-11T00:20:59.725Z,5.40
2018-12-11T00:23:28.206Z,5.20
2018-12-11T00:25:56.650Z,5.30
2018-12-11T00:28:25.077Z,5.30
2018-12-11T00:30:53.562Z,5.30
2018-12-11T00:33:21.986Z,5.20
2018-12-11T00:35:51.137Z,5.30
2018-12-11T00:38:19.603Z,5.30
2018-12-11T00:40:47.878Z,5.20
2018-12-11T00:45:51.340Z,5.20
2018-12-11T00:48:19.762Z,5.20
2018-12-11T00:50:48.173Z,5.40
2018-12-11T00:53:16.891Z,5.20
2018-12-11T00:55:45.874Z,5.10
2018-12-11T00:58:15.382Z,5.10
2018-12-11T01:00:42.905Z,5.00
2018-12-11T01:03:11.309Z,5.00
2018-12-11T01:05:39.734Z,5.00
2018-12-11T01:08:08.274Z,5.10
2018-12-11T01:10:36.986Z,5.00
2018-12-11T01:13:05.266Z,5.00
2018-12-11T01:15:33.649Z,4.90
2018-12-11T01:18:02.037Z,4.90
2018-12-11T01:20:30.372Z,4.80
2018-12-11T01:22:59.137Z,4.70
2018-12-11T01:25:26.523Z,4.80
2018-12-11T01:28:00.245Z,4.80
2018-12-11T01:30:27.510Z,4.90
2018-12-11T01:32:54.792Z,4.90
2018-12-11T01:35:22.085Z,4.80
2018-12-11T01:37:49.381Z,4.80
2018-12-11T01:40:16.664Z,4.70
2018-12-11T01:42:45.073Z,4.70
2018-12-11T01:45:13.589Z,4.80
2018-12-11T01:47:41.981Z,4.70
2018-12-11T01:50:10.382Z,4.60
2018-12-11T01:52:38.786Z,4.70
2018-12-11T01:55:07.310Z,4.80
2018-12-11T01:57:36.022Z,4.60
2018-12-11T02:00:07.589Z,4.60
2018-12-11T02:02:35.065Z,4.70
2018-12-11T02:05:04.000Z,4.70
2018-12-11T02:07:32.590Z,4.80
2018-12-11T02:10:01.090Z,4.90
2018-12-11T02:12:28.365Z,4.90
2018-12-11T02:14:56.742Z,4.80
2018-12-11T02:17:28.816Z,4.80
2018-12-11T02:19:56.117Z,4.80
2018-12-11T02:22:23.401Z,4.80
2018-12-11T02:24:50.689Z,4.80
2018-12-11T02:27:19.187Z,4.90
2018-12-11T02:29:47.485Z,4.90
2018-12-11T02:32:15.884Z,4.90
2018-12-11T02:34:45.557Z,4.90
2018-12-11T02:37:12.960Z,4.80
2018-12-11T02:39:40.349Z,4.80
2018-12-11T02:42:08.719Z,4.40
2018-12-11T02:44:37.135Z,4.90
2018-12-11T02:47:05.643Z,5.00
2018-12-11T02:49:34.047Z,5.00
2018-12-11T02:52:02.958Z,4.90
2018-12-11T02:54:31.255Z,5.10
2018-12-11T02:56:59.808Z,4.80
2018-12-11T02:59:27.972Z,5.10
2018-12-11T03:01:56.369Z,4.90
2018-12-11T03:04:24.961Z,4.90
2018-12-11T03:06:52.489Z,4.80
2018-12-11T03:09:20.889Z,4.80
2018-12-11T03:11:49.451Z,5.40
2018-12-11T03:14:18.225Z,4.90
2018-12-11T03:16:46.666Z,4.90
2018-12-11T03:19:15.307Z,4.90
2018-12-11T03:21:43.715Z,5.30
2018-12-11T03:24:12.117Z,4.70
2018-12-11T03:26:40.503Z,4.90
2018-12-11T03:29:07.875Z,4.90
2018-12-11T03:31:36.548Z,4.80
2018-12-11T03:34:05.043Z,4.60
2018-12-11T03:36:33.517Z,4.90
2018-12-11T03:39:02.100Z,4.90
2018-12-11T03:41:30.485Z,4.90
2018-12-11T03:43:59.111Z,5.00
2018-12-11T03:46:28.889Z,5.30
2018-12-11T03:48:56.182Z,5.00
2018-12-11T03:51:24.826Z,4.90
2018-12-11T03:53:55.878Z,4.90
2018-12-11T03:56:23.201Z,4.90
2018-12-11T03:58:50.476Z,4.90
2018-12-11T04:01:17.934Z,4.90
2018-12-11T04:03:46.459Z,4.80
2018-12-11T04:06:14.834Z,4.90
2018-12-11T04:08:43.276Z,4.90
2018-12-11T04:11:11.878Z,5.00
2018-12-11T04:13:40.285Z,5.00
2018-12-11T04:16:08.773Z,5.00
2018-12-11T04:18:37.314Z,4.50
2018-12-11T04:21:05.717Z,5.00
2018-12-11T04:23:34.130Z,4.90
2018-12-11T04:26:02.760Z,5.00
2018-12-11T04:28:31.139Z,5.10
2018-12-11T04:31:00.031Z,5.10
2018-12-11T04:33:27.473Z,4.80
2018-12-11T04:35:55.775Z,5.10
2018-12-11T04:38:24.252Z,5.00
2018-12-11T04:40:53.653Z,5.00
2018-12-11T04:43:21.116Z,5.00
2018-12-11T04:45:49.917Z,5.00
2018-12-11T04:48:18.210Z,5.00
2018-12-11T04:50:46.681Z,5.10
2018-12-11T04:53:15.054Z,5.10
2018-12-11T04:55:43.389Z,5.30
2018-12-11T04:58:14.790Z,5.00
2018-12-11T05:00:42.066Z,5.00
2018-12-11T05:03:09.394Z,5.00
2018-12-11T05:05:36.670Z,4.90
2018-12-11T05:08:09.757Z,5.10
2018-12-11T05:10:38.154Z,5.00
2018-12-11T05:13:07.171Z,4.90
2018-12-11T05:15:34.708Z,4.80
2018-12-11T05:18:03.389Z,4.70
2018-12-11T05:20:32.177Z,4.70
2018-12-11T05:23:00.791Z,4.70
2018-12-11T05:25:29.217Z,4.70
2018-12-11T05:27:57.733Z,4.90
2018-12-11T05:30:26.267Z,4.80
2018-12-11T05:32:54.677Z,4.90
2018-12-11T05:35:22.973Z,4.80
2018-12-11T05:37:51.248Z,4.70
2018-12-11T05:40:19.827Z,4.80
2018-12-11T05:42:48.143Z,4.80
2018-12-11T05:45:16.546Z,4.80
2018-12-11T05:47:45.105Z,4.70
2018-12-11T05:50:13.483Z,4.00
2018-12-11T05:52:41.763Z,4.60
2018-12-11T05:55:10.282Z,5.00
2018-12-11T05:57:38.594Z,4.80
2018-12-11T06:00:08.213Z,4.70
2018-12-11T06:02:36.756Z,4.70
2018-12-11T06:05:06.706Z,4.80
2018-12-11T06:07:35.419Z,4.70
2018-12-11T06:10:05.006Z,4.80
2018-12-11T06:12:33.419Z,4.60
2018-12-11T06:15:04.087Z,4.70
2018-12-11T06:17:31.409Z,4.70
2018-12-11T06:19:58.917Z,4.70
2018-12-11T06:22:26.185Z,4.70
2018-12-11T06:24:55.666Z,4.70
2018-12-11T06:27:22.965Z,4.60
2018-12-11T06:29:51.369Z,4.60
2018-12-11T06:32:20.010Z,4.70
2018-12-11T06:34:48.582Z,4.60
2018-12-11T06:37:17.058Z,4.70
2018-12-11T06:39:45.489Z,4.60
2018-12-11T06:42:15.266Z,4.70
2018-12-11T06:44:42.529Z,4.60
2018-12-11T06:47:10.831Z,4.60
2018-12-11T06:49:39.219Z,4.70
2018-12-11T06:52:07.598Z,4.70
2018-12-11T06:54:35.993Z,4.70
2018-12-11T06:57:04.280Z,4.80
2018-12-11T06:59:32.685Z,4.80
2018-12-11T07:02:05.101Z,4.80
2018-12-11T07:04:32.482Z,4.60
2018-12-11T07:07:00.969Z,4.50
2018-12-11T07:09:29.384Z,4.70
2018-12-11T07:11:57.749Z,5.30
2018-12-11T07:14:29.947Z,4.90
2018-12-11T07:16:57.826Z,4.80
2018-12-11T07:19:25.100Z,4.90
2018-12-11T07:21:52.509Z,4.90
2018-12-11T07:24:20.934Z,4.90
2018-12-11T07:26:54.465Z,4.90
2018-12-11T07:29:21.737Z,4.90
2018-12-11T07:31:49.142Z,4.80
2018-12-11T07:34:16.414Z,4.90
2018-12-11T07:36:43.735Z,4.90
2018-12-11T07:41:43.373Z,5.30
2018-12-11T07:44:10.733Z,5.00
2018-12-11T07:46:38.067Z,4.90
2018-12-11T07:49:05.372Z,5.00
2018-12-11T07:51:32.667Z,4.70
2018-12-11T07:54:03.065Z,5.00
2018-12-11T07:56:30.434Z,5.00
2018-12-11T07:58:58.934Z,5.00
2018-12-11T08:01:27.433Z,4.90
2018-12-11T08:03:56.179Z,5.20
2018-12-11T08:06:25.926Z,4.90
2018-12-11T08:08:53.254Z,5.00
2018-12-11T08:11:21.683Z,4.60
2018-12-11T08:13:50.180Z,5.00
2018-12-11T08:16:18.989Z,5.10
2018-12-11T08:18:51.575Z,5.10
2018-12-11T08:21:18.854Z,5.10
2018-12-11T08:23:46.166Z,5.10
2018-12-11T08:26:14.541Z,5.10
2018-12-11T08:28:43.029Z,5.10
2018-12-11T08:31:16.329Z,5.20
2018-12-11T08:33:43.745Z,5.10
2018-12-11T08:36:11.038Z,5.10
2018-12-11T08:38:38.435Z,5.20
2018-12-11T08:41:05.717Z,5.30
2018-12-11T08:43:33.019Z,4.90
2018-12-11T08:46:01.473Z,5.30
2018-12-11T08:48:30.494Z,5.30
2018-12-11T08:50:57.780Z,5.30
2018-12-11T08:53:26.513Z,5.30
2018-12-11T08:55:53.819Z,5.10
2018-12-11T08:58:22.379Z,5.20
2018-12-11T09:00:54.732Z,5.20
2018-12-11T09:03:22.029Z,5.30
2018-12-11T09:05:49.318Z,5.30
2018-12-11T09:08:16.588Z,5.30
2018-12-11T09:10:44.976Z,5.30
2018-12-11T09:13:19.514Z,5.80
2018-12-11T09:15:48.609Z,5.40
2018-12-11T09:18:15.901Z,5.30
2018-12-11T09:20:43.274Z,5.40
2018-12-11T09:23:10.557Z,5.50
2018-12-11T09:25:37.870Z,5.40
2018-12-11T09:28:10.807Z,5.50
2018-12-11T09:30:37.407Z,5.50
2018-12-11T09:33:04.725Z,5.60
2018-12-11T09:35:31.990Z,5.50
2018-12-11T09:37:59.478Z,5.50
2018-12-11T09:40:26.770Z,5.40
2018-12-11T09:42:55.173Z,5.80
2018-12-11T09:45:29.145Z,5.60
2018-12-11T09:47:56.444Z,5.80
2018-12-11T09:50:23.719Z,5.80
2018-12-11T09:52:50.973Z,5.80
2018-12-11T09:55:19.424Z,5.90
2018-12-11T09:57:48.007Z,5.90
2018-12-11T10:00:19.262Z,5.90
2018-12-11T10:02:47.909Z,5.90
2018-12-11T10:05:16.329Z,5.90
2018-12-11T10:07:44.845Z,6.00
2018-12-11T10:10:12.234Z,6.10
2018-12-11T10:12:44.910Z,6.00
2018-12-11T10:15:12.313Z,5.90
2018-12-11T10:17:39.577Z,6.00
2018-12-11T10:20:07.019Z,6.00
2018-12-11T10:22:35.503Z,6.00
2018-12-11T10:25:04.242Z,6.10
2018-12-11T10:27:35.842Z,6.10
2018-12-11T10:30:04.496Z,6.10
2018-12-11T10:32:31.787Z,6.00
2018-12-11T10:34:59.189Z,6.00
2018-12-11T10:37:27.593Z,6.10
2018-12-11T10:39:59.753Z,6.10
2018-12-11T10:42:27.033Z,6.10
2018-12-11T10:44:54.395Z,5.80
2018-12-11T10:47:22.082Z,6.00
2018-12-11T10:49:49.606Z,6.10
2018-12-11T10:52:23.476Z,6.10
2018-12-11T10:54:50.766Z,6.10
2018-12-11T10:57:18.149Z,6.10
2018-12-11T10:59:45.431Z,6.10
2018-12-11T11:02:18.397Z,6.10
2018-12-11T11:04:50.331Z,6.20
2018-12-11T11:07:17.993Z,6.20
2018-12-11T11:09:46.634Z,6.20
2018-12-11T11:12:14.107Z,6.30
2018-12-11T11:14:41.408Z,6.40
2018-12-11T11:17:13.950Z,6.50
2018-12-11T11:19:41.222Z,6.60
2018-12-11T11:22:08.617Z,6.70
2018-12-11T11:24:36.374Z,7.10
2018-12-11T11:27:04.013Z,6.80
2018-12-11T11:29:31.301Z,6.90
2018-12-11T11:32:00.665Z,6.90
2018-12-11T11:34:39.210Z,6.90
2018-12-11T11:37:06.719Z,7.00
2018-12-11T11:39:35.449Z,6.90
2018-12-11T11:42:02.862Z,7.00
2018-12-11T11:44:30.570Z,7.00
2018-12-11T11:46:57.866Z,7.10
2018-12-11T11:49:25.147Z,7.10
2018-12-11T11:51:52.416Z,6.90
2018-12-11T11:54:19.695Z,7.10
2018-12-11T11:56:50.528Z,7.10
2018-12-11T11:59:17.853Z,7.00
2018-12-11T12:01:45.655Z,7.10
2018-12-11T12:04:12.929Z,7.00
2018-12-11T12:06:40.334Z,7.10
2018-12-11T12:09:19.519Z,7.00
2018-12-11T12:11:46.837Z,7.10
2018-12-11T12:14:14.148Z,7.00
2018-12-11T12:16:41.680Z,6.70
2018-12-11T12:19:09.108Z,7.40
2018-12-11T12:21:36.615Z,7.20
2018-12-11T12:24:05.477Z,7.20
2018-12-11T12:26:32.749Z,7.20
2018-12-11T12:29:00.245Z,7.20
2018-12-11T12:31:27.761Z,7.30
2018-12-11T12:33:55.053Z,7.30
2018-12-11T12:36:23.562Z,7.40
2018-12-11T12:38:53.308Z,7.50
2018-12-11T12:41:20.569Z,7.40
2018-12-11T12:43:48.931Z,7.40
2018-12-11T12:46:17.256Z,7.40
2018-12-11T12:48:45.705Z,7.30
2018-12-11T12:51:16.498Z,7.30
2018-12-11T12:53:43.909Z,7.40
2018-12-11T12:56:12.478Z,7.40
2018-12-11T12:58:40.934Z,7.40
2018-12-11T13:01:09.323Z,7.50
2018-12-11T13:03:41.153Z,7.40
2018-12-11T13:06:08.434Z,7.40
2018-12-11T13:08:35.865Z,7.30
2018-12-11T13:11:03.256Z,7.30
2018-12-11T13:13:31.751Z,7.30
2018-12-11T13:16:04.155Z,7.40
2018-12-11T13:18:31.439Z,7.40
2018-12-11T13:20:58.903Z,7.50
2018-12-11T13:23:26.229Z,7.80
2018-12-11T13:25:53.497Z,7.30
2018-12-11T13:28:22.783Z,7.30
2018-12-11T13:30:54.014Z,7.30
2018-12-11T13:33:21.407Z,7.30
2018-12-11T13:35:49.918Z,7.10
2018-12-11T13:38:18.406Z,7.50
2018-12-11T13:40:47.097Z,7.20
2018-12-11T13:43:16.406Z,7.30
2018-12-11T13:45:44.833Z,7.10
2018-12-11T13:48:13.587Z,7.10
2018-12-11T13:50:42.093Z,7.00
2018-12-11T13:55:44.426Z,7.00
2018-12-11T13:58:11.754Z,7.00
2018-12-11T14:00:39.246Z,7.00
2018-12-11T14:03:06.628Z,7.00
2018-12-11T14:05:33.956Z,7.10
2018-12-11T14:08:05.932Z,7.00
2018-12-11T14:10:33.326Z,7.00
2018-12-11T14:13:00.907Z,7.20
2018-12-11T14:15:28.227Z,7.10
2018-12-11T14:17:55.566Z,7.40
2018-12-11T14:20:24.127Z,7.60
2018-12-11T14:22:54.255Z,7.30
2018-12-11T14:25:21.602Z,7.20
2018-12-11T14:27:49.311Z,7.50
2018-12-11T14:30:17.864Z,7.10
2018-12-11T14:32:46.480Z,7.20
2018-12-11T14:35:19.234Z,7.50
2018-12-11T14:37:46.565Z,7.10
2018-12-11T14:40:13.869Z,7.10
2018-12-11T14:42:41.232Z,7.10
2018-12-11T14:45:08.518Z,7.30
2018-12-11T14:47:39.813Z,7.20
2018-12-11T14:50:08.454Z,7.20
2018-12-11T14:52:36.032Z,7.20
2018-12-11T14:55:05.193Z,7.20
2018-12-11T14:57:33.638Z,7.10
2018-12-11T15:00:05.754Z,7.00
2018-12-11T15:02:33.218Z,7.00
2018-12-11T15:05:01.146Z,7.40
2018-12-11T15:07:28.461Z,7.20
2018-12-11T15:09:55.736Z,7.20
2018-12-11T15:12:27.409Z,7.40
2018-12-11T15:14:55.327Z,7.20
2018-12-11T15:17:22.619Z,7.30
2018-12-11T15:19:49.886Z,7.20
2018-12-11T15:22:17.168Z,7.20
2018-12-11T15:24:45.536Z,7.20
2018-12-11T15:27:19.071Z,7.20
2018-12-11T15:29:46.472Z,7.20
2018-12-11T15:32:14.161Z,7.20
2018-12-11T15:34:41.449Z,7.20
2018-12-11T15:37:08.749Z,7.10
2018-12-11T15:39:38.591Z,7.00
2018-12-11T15:42:07.587Z,6.70
2018-12-11T15:44:34.872Z,7.00
2018-12-11T15:47:02.142Z,7.10
2018-12-11T15:49:30.545Z,7.10
2018-12-11T15:51:58.963Z,7.10
2018-12-11T15:54:29.102Z,7.10
2018-12-11T15:56:56.547Z,7.10
2018-12-11T15:59:23.838Z,7.10
2018-12-11T16:01:52.181Z,7.10
2018-12-11T16:04:21.121Z,7.10
2018-12-11T16:06:56.117Z,7.00
2018-12-11T16:09:29.190Z,7.10
2018-12-11T16:11:56.457Z,7.10
2018-12-11T16:14:23.739Z,7.10
2018-12-11T16:16:56.649Z,7.10
2018-12-11T16:19:23.971Z,7.10
2018-12-11T16:21:51.410Z,7.10
2018-12-11T16:24:18.676Z,7.10
2018-12-11T16:26:46.032Z,7.10
2018-12-11T16:29:13.306Z,7.20
2018-12-11T16:31:42.379Z,7.20
2018-12-11T16:34:09.885Z,7.20
2018-12-11T16:36:37.202Z,7.10
2018-12-11T16:39:06.283Z,7.20
2018-12-11T16:41:33.533Z,7.20
2018-12-11T16:44:05.948Z,7.30
2018-12-11T16:46:33.248Z,7.30
2018-12-11T16:49:00.568Z,7.20
2018-12-11T16:51:27.854Z,7.10
2018-12-11T16:53:56.348Z,7.20
2018-12-11T16:56:28.102Z,7.10
2018-12-11T16:58:55.361Z,7.10
2018-12-11T17:01:22.638Z,7.00
2018-12-11T17:03:50.019Z,7.20
2018-12-11T17:06:17.285Z,7.10
2018-12-11T17:08:45.749Z,7.10
2018-12-11T17:11:16.358Z,7.10
2018-12-11T17:13:43.793Z,7.10
2018-12-11T17:16:11.088Z,7.30
2018-12-11T17:18:39.690Z,7.40
2018-12-11T17:21:08.179Z,7.10
2018-12-11T17:23:37.887Z,7.10
2018-12-11T17:26:05.393Z,7.00
2018-12-11T17:28:32.935Z,7.20
2018-12-11T17:31:01.641Z,7.10
2018-12-11T17:33:30.120Z,7.30
2018-12-11T17:36:03.972Z,6.90
2018-12-11T17:38:31.302Z,6.90
2018-12-11T17:40:58.746Z,6.90
2018-12-11T17:43:26.060Z,7.40
2018-12-11T17:45:54.416Z,7.00
2018-12-11T17:48:26.470Z,7.00
2018-12-11T17:50:54.207Z,6.90
2018-12-11T17:53:21.867Z,7.20
2018-12-11T17:55:49.184Z,6.90
2018-12-11T17:58:17.562Z,6.90
2018-12-11T18:00:51.054Z,6.60
2018-12-11T18:03:18.310Z,6.90
2018-12-11T18:05:45.582Z,6.80
2018-12-11T18:08:14.028Z,6.90
2018-12-11T18:10:42.466Z,6.80
2018-12-11T18:13:14.244Z,6.80
2018-12-11T18:15:41.740Z,6.80
2018-12-11T18:18:09.062Z,6.80
2018-12-11T18:20:37.494Z,6.80
2018-12-11T18:23:05.926Z,6.80
2018-12-11T18:25:39.472Z,6.80
2018-12-11T18:28:06.892Z,6.60
2018-12-11T18:30:34.189Z,6.60
2018-12-11T18:33:01.579Z,6.70
2018-12-11T18:35:30.306Z,6.60
2018-12-11T18:37:58.793Z,6.70
2018-12-11T18:40:31.176Z,7.00
2018-12-11T18:42:58.521Z,6.80
2018-12-11T18:47:49.998Z,6.80
2018-12-11T18:50:21.331Z,6.80
2018-12-11T18:52:48.564Z,6.70
2018-12-11T18:55:21.034Z,6.70
2018-12-11T18:57:48.298Z,6.70
2018-12-11T19:00:15.727Z,6.70
2018-12-11T19:02:43.157Z,6.70
2018-12-11T19:05:11.789Z,6.70
2018-12-11T19:07:45.219Z,6.70
2018-12-11T19:10:12.777Z,6.70
2018-12-11T19:12:40.194Z,6.60
2018-12-11T19:15:07.697Z,7.10
2018-12-11T19:17:35.125Z,6.40
2018-12-11T19:20:04.799Z,6.60
2018-12-11T19:22:34.311Z,6.60
2018-12-11T19:25:01.798Z,6.60
2018-12-11T19:27:30.353Z,6.60
2018-12-11T19:29:58.853Z,6.60
2018-12-11T19:32:27.277Z,6.60
2018-12-11T19:34:57.892Z,6.60
2018-12-11T19:37:25.213Z,6.80
2018-12-11T19:39:53.520Z,6.80
2018-12-11T19:42:22.105Z,6.60
2018-12-11T19:44:50.605Z,6.60
2018-12-11T19:47:19.313Z,6.50
2018-12-11T19:49:49.171Z,6.30
2018-12-11T19:52:17.474Z,6.50
2018-12-11T19:54:45.870Z,6.50
2018-12-11T19:57:14.294Z,6.50
2018-12-11T19:59:42.877Z,6.50
2018-12-11T20:02:12.800Z,6.50
2018-12-11T20:04:40.146Z,6.50
2018-12-11T20:07:08.544Z,6.40
2018-12-11T20:09:41.561Z,6.40
2018-12-11T20:12:09.905Z,6.40
2018-12-11T20:14:39.472Z,6.30
2018-12-11T20:17:07.970Z,6.40
2018-12-11T20:19:36.741Z,6.30
2018-12-11T20:22:05.197Z,6.30
2018-12-11T20:24:33.627Z,6.30
2018-12-11T20:27:04.163Z,6.40
2018-12-11T20:29:31.554Z,6.30
2018-12-11T20:32:00.134Z,6.30
2018-12-11T20:34:28.561Z,6.00
2018-12-11T20:36:56.999Z,6.20
2018-12-11T20:39:29.793Z,6.30
2018-12-11T20:41:57.156Z,6.20
2018-12-11T20:44:24.513Z,6.20
2018-12-11T20:46:51.810Z,6.20
2018-12-11T20:49:19.575Z,6.20
2018-12-11T20:51:46.948Z,6.10
2018-12-11T20:54:16.926Z,6.40
2018-12-11T20:56:44.714Z,6.00
2018-12-11T20:59:12.126Z,6.00
2018-12-11T21:01:40.733Z,5.90
2018-12-11T21:04:09.213Z,5.60
2018-12-11T21:06:39.694Z,5.80
2018-12-11T21:09:11.566Z,6.10
2018-12-11T21:11:38.908Z,5.80
2018-12-11T21:14:07.195Z,5.70
2018-12-11T21:16:41.145Z,5.70
2018-12-11T21:19:08.763Z,5.70
2018-12-11T21:21:36.630Z,5.90
2018-12-11T21:24:03.964Z,5.60
2018-12-11T21:26:31.667Z,5.70
2018-12-11T21:28:58.977Z,5.60
2018-12-11T21:31:32.116Z,5.60
2018-12-11T21:33:59.710Z,5.50
2018-12-11T21:36:27.042Z,5.50
2018-12-11T21:38:54.460Z,5.50
2018-12-11T21:41:21.835Z,5.40
2018-12-11T21:43:50.398Z,5.30
2018-12-11T21:46:24.033Z,5.40
2018-12-11T21:48:51.414Z,5.10
2018-12-11T21:51:18.699Z,5.30
2018-12-11T21:53:46.294Z,5.20
2018-12-11T21:56:13.675Z,5.20
2018-12-11T21:58:41.028Z,5.10
2018-12-11T22:01:13.098Z,5.10
2018-12-11T22:03:40.857Z,5.10
2018-12-11T22:06:08.686Z,5.00
2018-12-11T22:08:36.173Z,5.00
2018-12-11T22:11:03.535Z,5.00
2018-12-11T22:13:31.119Z,4.90
2018-12-11T22:15:59.710Z,4.90
2018-12-11T22:18:28.216Z,4.90
2018-12-11T22:20:56.724Z,4.90
2018-12-11T22:23:25.192Z,4.80
2018-12-11T22:25:53.656Z,4.80
2018-12-11T22:28:23.239Z,4.70
2018-12-11T22:30:50.533Z,4.70
2018-12-11T22:33:19.149Z,4.60
2018-12-11T22:35:47.645Z,4.80
2018-12-11T22:38:14.926Z,4.70
2018-12-11T22:40:47.983Z,4.60
2018-12-11T22:43:16.242Z,4.80
2018-12-11T22:45:43.564Z,4.80
2018-12-11T22:48:10.937Z,4.80
2018-12-11T22:50:38.249Z,4.80
2018-12-11T22:53:05.589Z,4.80
2018-12-11T22:55:36.626Z,4.90
2018-12-11T22:58:03.950Z,4.80
2018-12-11T23:00:31.578Z,4.80
2018-12-11T23:02:58.925Z,4.80
2018-12-11T23:05:27.459Z,4.80
2018-12-11T23:08:00.742Z,4.80
2018-12-11T23:10:28.109Z,4.90
2018-12-11T23:12:55.533Z,4.90
2018-12-11T23:15:22.929Z,4.90
2018-12-11T23:17:50.217Z,5.30
2018-12-11T23:20:17.545Z,4.90
2018-12-11T23:25:20.298Z,4.80
2018-12-11T23:27:47.876Z,4.90
2018-12-11T23:30:15.210Z,4.90
2018-12-11T23:32:42.704Z,4.90
2018-12-11T23:35:10.114Z,4.90
2018-12-11T23:37:40.494Z,4.90
2018-12-11T23:40:08.174Z,4.90
2018-12-11T23:42:35.694Z,4.90
2018-12-11T23:45:03.321Z,5.00
2018-12-11T23:47:30.669Z,5.00
2018-12-11T23:49:59.024Z,5.00
2018-12-11T23:52:32.697Z,5.00
2018-12-11T23:55:00.202Z,5.00
2018-12-11T23:57:27.615Z,5.00
2018-12-11T23:59:54.992Z,5.10
